createdAt,value
2023-02-20T00:04:53.885Z,61
2023-02-20T00:09:55.397Z,61
2023-02-20T00:19:58.987Z,61
2023-02-20T00:40:06.081Z,61
2023-02-20T00:45:07.513Z,61
2023-02-20T00:50:09.094Z,61
2023-02-20T00:55:10.820Z,61
2023-02-20T01:05:13.818Z,61
2023-02-20T01:10:15.651Z,61
2023-02-20T01:15:16.973Z,61
2023-02-20T01:25:20.232Z,61
2023-02-20T01:35:23.848Z,62
2023-02-20T01:40:25.982Z,62
2023-02-20T01:45:27.686Z,62
2023-02-20T01:50:29.758Z,62
2023-02-20T01:55:31.652Z,62
2023-02-20T02:00:33.146Z,62
2023-02-20T02:05:35.154Z,62
2023-02-20T02:10:36.869Z,63
2023-02-20T02:15:38.248Z,63
2023-02-20T02:20:39.969Z,63
2023-02-20T02:25:41.822Z,63
2023-02-20T02:30:43.371Z,63
2023-02-20T02:35:45.173Z,63
2023-02-20T02:40:47.214Z,64
2023-02-20T02:45:48.666Z,64
2023-02-20T02:50:50.609Z,64
2023-02-20T02:55:52.025Z,64
2023-02-20T03:00:54.198Z,64
2023-02-20T03:05:55.936Z,64
2023-02-20T03:10:57.722Z,64
2023-02-20T03:15:59.122Z,64
2023-02-20T03:21:00.437Z,64
2023-02-20T03:26:02.370Z,64
2023-02-20T03:31:04.576Z,64
2023-02-20T03:36:06.570Z,65
2023-02-20T03:41:08.312Z,65
2023-02-20T03:46:09.531Z,65
2023-02-20T03:51:10.740Z,64
2023-02-20T03:56:13.186Z,65
2023-02-20T04:01:14.234Z,65
2023-02-20T04:06:16.039Z,65
2023-02-20T04:11:17.425Z,65
2023-02-20T04:16:18.797Z,66
2023-02-20T04:21:20.497Z,66
2023-02-20T04:26:22.408Z,66
2023-02-20T04:31:23.998Z,66
2023-02-20T04:36:25.939Z,66
2023-02-20T04:41:27.757Z,66
2023-02-20T04:46:29.376Z,66
2023-02-20T04:51:31.369Z,66
2023-02-20T04:56:32.850Z,66
2023-02-20T05:01:35.041Z,66
2023-02-20T05:06:36.289Z,66
2023-02-20T05:11:38.101Z,66
2023-02-20T05:16:39.382Z,66
2023-02-20T05:21:41.214Z,66
2023-02-20T05:26:42.513Z,67
2023-02-20T05:31:43.950Z,67
2023-02-20T05:36:45.717Z,67
2023-02-20T05:41:46.987Z,67
2023-02-20T05:46:48.279Z,67
2023-02-20T05:51:49.437Z,67
2023-02-20T05:56:50.739Z,67
2023-02-20T06:01:52.342Z,68
2023-02-20T06:06:53.969Z,68
2023-02-20T06:11:55.863Z,68
2023-02-20T06:16:57.743Z,68
2023-02-20T06:21:59.401Z,68
2023-02-20T06:27:01.084Z,68
2023-02-20T06:32:03.255Z,68
2023-02-20T06:37:04.514Z,68
2023-02-20T06:42:06.163Z,68
2023-02-20T06:47:08.090Z,68
2023-02-20T06:52:09.349Z,68
2023-02-20T06:57:10.708Z,68
2023-02-20T07:02:12.340Z,68
2023-02-20T07:07:14.311Z,68
2023-02-20T07:12:16.384Z,67
2023-02-20T07:17:18.129Z,66
2023-02-20T07:22:19.351Z,68
2023-02-20T07:27:20.611Z,67
2023-02-20T07:32:22.193Z,66
2023-02-20T07:37:23.785Z,64
2023-02-20T07:42:25.753Z,61
2023-02-20T07:47:27.720Z,59
2023-02-20T07:52:29.545Z,58
2023-02-20T07:57:30.841Z,57
2023-02-20T08:02:32.835Z,56
2023-02-20T08:07:34.471Z,54
2023-02-20T08:12:35.795Z,50
2023-02-20T08:17:45.815Z,50
2023-02-20T08:22:41.722Z,46
2023-02-20T08:27:40.600Z,42
2023-02-20T08:32:41.997Z,42
2023-02-20T08:37:43.082Z,44
2023-02-20T08:42:45.102Z,44
2023-02-20T08:47:46.958Z,44
2023-02-20T08:52:48.656Z,45
2023-02-20T08:57:50.614Z,44
2023-02-20T09:02:52.493Z,41
2023-02-20T09:07:53.907Z,38
2023-02-20T09:12:55.564Z,36
2023-02-20T09:17:56.972Z,34
2023-02-20T09:22:58.786Z,32
2023-02-20T09:28:00.455Z,32
2023-02-20T09:33:01.671Z,31
2023-02-20T09:38:03.818Z,32
2023-02-20T09:43:05.828Z,32
2023-02-20T09:48:07.337Z,30
2023-02-20T09:53:09.054Z,30
2023-02-20T09:58:11.165Z,29
2023-02-20T10:03:12.713Z,27
2023-02-20T10:08:14.614Z,27
2023-02-20T10:13:15.833Z,26
2023-02-20T10:18:17.604Z,27
2023-02-20T10:23:19.184Z,26
2023-02-20T10:28:20.465Z,27
2023-02-20T10:33:22.572Z,27
2023-02-20T10:38:23.750Z,27
2023-02-20T10:43:25.884Z,26
2023-02-20T10:48:27.350Z,27
2023-02-20T10:53:29.313Z,25
2023-02-20T10:58:30.544Z,24
2023-02-20T11:03:31.961Z,25
2023-02-20T11:08:34.018Z,24
2023-02-20T11:13:36.503Z,25
2023-02-20T11:18:37.403Z,24
2023-02-20T11:23:39.066Z,25
2023-02-20T11:28:40.984Z,25
2023-02-20T11:33:42.317Z,25
2023-02-20T11:38:43.858Z,25
2023-02-20T11:43:55.917Z,27
2023-02-20T11:48:47.266Z,27
2023-02-20T11:53:49.335Z,28
2023-02-20T11:58:50.868Z,30
2023-02-20T12:03:52.969Z,31
2023-02-20T12:08:54.221Z,33
2023-02-20T12:13:55.449Z,33
2023-02-20T12:18:57.381Z,34
2023-02-20T12:23:58.794Z,34
2023-02-20T12:24:05.122Z,34
2023-02-20T12:29:07.132Z,36
2023-02-20T12:34:09.029Z,36
2023-02-20T12:39:11.300Z,36
2023-02-20T12:44:13.726Z,36
2023-02-20T12:49:13.964Z,36
2023-02-20T12:54:15.790Z,37
2023-02-20T12:59:17.403Z,37
2023-02-20T13:04:19.049Z,36
2023-02-20T13:09:20.886Z,37
2023-02-20T13:14:22.235Z,38
2023-02-20T13:19:23.829Z,38
2023-02-20T13:24:25.246Z,36
2023-02-20T13:29:26.829Z,37
2023-02-20T13:34:28.946Z,37
2023-02-20T13:39:30.494Z,37
2023-02-20T13:44:31.822Z,37
2023-02-20T13:49:33.077Z,37
2023-02-20T13:54:34.402Z,37
2023-02-20T13:59:36.635Z,37
2023-02-20T14:04:38.104Z,38
2023-02-20T14:09:39.684Z,37
2023-02-20T14:14:41.829Z,36
2023-02-20T14:19:43.783Z,36
2023-02-20T14:24:45.016Z,37
2023-02-20T14:29:46.376Z,36
2023-02-20T14:34:48.566Z,36
2023-02-20T14:39:50.177Z,36
2023-02-20T14:44:51.638Z,36
2023-02-20T14:49:53.571Z,36
2023-02-20T15:04:58.173Z,37
2023-02-20T15:09:59.795Z,37
2023-02-20T15:25:04.712Z,37
2023-02-20T15:30:06.285Z,37
2023-02-20T15:35:08.133Z,38
2023-02-20T15:45:11.344Z,38
2023-02-20T15:50:12.632Z,39
2023-02-20T16:00:15.988Z,39
2023-02-20T16:05:17.111Z,39
2023-02-20T16:10:18.357Z,39
2023-02-20T16:20:21.840Z,39
2023-02-20T16:25:23.059Z,39
2023-02-20T16:30:33.096Z,39
2023-02-20T16:35:26.767Z,39
2023-02-20T16:40:28.025Z,39
2023-02-20T16:45:29.245Z,40
2023-02-20T16:50:30.649Z,40
2023-02-20T16:55:32.822Z,40
2023-02-20T17:00:34.992Z,41
2023-02-20T17:05:36.793Z,41
2023-02-20T17:10:38.616Z,41
2023-02-20T17:15:40.662Z,42
2023-02-20T17:20:41.766Z,42
2023-02-20T17:25:43.093Z,42
2023-02-20T17:30:45.018Z,43
2023-02-20T17:35:46.750Z,43
2023-02-20T17:40:48.669Z,43
2023-02-20T17:45:50.212Z,43
2023-02-20T17:50:51.399Z,43
2023-02-20T17:55:52.653Z,44
2023-02-20T18:00:54.087Z,43
2023-02-20T18:05:55.310Z,44
2023-02-20T18:10:56.471Z,44
2023-02-20T18:15:58.364Z,44
2023-02-20T18:21:00.195Z,45
2023-02-20T18:26:01.773Z,45
2023-02-20T18:31:03.824Z,45
2023-02-20T18:36:08.116Z,45
2023-02-20T18:41:07.345Z,45
2023-02-20T18:46:09.541Z,45
2023-02-20T18:51:10.953Z,45
2023-02-20T18:56:12.431Z,46
2023-02-20T19:01:14.087Z,46
2023-02-20T19:06:15.867Z,46
2023-02-20T19:11:17.964Z,46
2023-02-20T19:16:19.478Z,46
2023-02-20T19:21:21.385Z,46
2023-02-20T19:26:23.089Z,46
2023-02-20T19:31:24.496Z,47
2023-02-20T19:36:26.578Z,47
2023-02-20T19:41:28.279Z,47
2023-02-20T19:46:29.798Z,47
2023-02-20T19:51:31.444Z,48
2023-02-20T19:56:32.661Z,47
2023-02-20T20:01:34.847Z,48
2023-02-20T20:06:36.645Z,48
2023-02-20T20:11:38.632Z,48
2023-02-20T20:16:40.144Z,48
2023-02-20T20:21:41.158Z,48
2023-02-20T20:26:42.620Z,48
2023-02-20T20:31:44.448Z,49
2023-02-20T20:36:45.955Z,49
2023-02-20T20:41:47.513Z,49
2023-02-20T20:46:48.848Z,50
2023-02-20T20:51:50.891Z,50
2023-02-20T20:56:52.901Z,50
2023-02-20T21:01:55.155Z,50
2023-02-20T21:06:56.715Z,51
2023-02-20T21:11:58.466Z,51
2023-02-20T21:17:00.697Z,50
2023-02-20T21:22:01.975Z,51
2023-02-20T21:27:03.708Z,52
2023-02-20T21:32:05.391Z,51
2023-02-20T21:37:06.686Z,51
2023-02-20T21:42:08.196Z,51
2023-02-20T21:47:09.637Z,52
2023-02-20T21:52:11.360Z,52
2023-02-20T21:57:13.265Z,52
2023-02-20T22:02:15.364Z,52
2023-02-20T22:07:17.143Z,53
2023-02-20T22:12:19.295Z,53
2023-02-20T22:17:20.698Z,54
2023-02-20T22:22:22.076Z,54
2023-02-20T22:27:23.857Z,54
2023-02-20T22:32:26.352Z,54
2023-02-20T22:37:28.063Z,54
2023-02-20T22:42:34.468Z,54
2023-02-20T22:47:31.359Z,54
2023-02-20T22:52:33.218Z,55
2023-02-20T22:57:34.992Z,55
2023-02-20T23:12:40.058Z,56
2023-02-20T23:17:41.393Z,55
2023-02-20T23:22:42.692Z,55
2023-02-20T23:27:44.849Z,55
2023-02-20T23:32:46.843Z,55
2023-02-20T23:37:48.794Z,55
2023-02-20T23:42:50.689Z,55
2023-02-20T23:47:52.310Z,55
2023-02-20T23:52:54.120Z,56
2023-02-20T23:57:56.096Z,56
